Dayton, WA

7:09 PM PDT on July 29, 2016 (GMT -0700)
Dayton Middle School | | Change Station
Active Advisory: Fire Weather Warning

Elev 1628 ft 46.32 °N, 117.97 °W | Updated 5 seconds ago

Clear
Clear
96.5 °F
Feels Like 93 °F
N
1.0
Wind Variable Wind from ENE
Gusts 3.5 mph

Today
High -- | Low -- °F
--% Chance of Precip.
Yesterday
High -- | Low -- °F
Precip. -- in
Pressure 29.71 in
Visibility 10.0 miles
Clouds Clear
Heat Index 93 °F
Dew Point 48 °F
Humidity 19%
Rainfall 0.00 in
Snow Depth Not available.
5:30 AM 8:24 PM
Waning Crescent, 17% visible
METAR KALW 300153Z AUTO 27004KT 10SM CLR 37/07 A2975 RMK AO2 SLP061 T03720067
Pressure 29.71 in
Visibility 10.0 miles
Clouds Clear
Heat Index 93 °F
Dew Point 48 °F
Humidity 19%
Rainfall 0.00 in
Snow Depth Not available.
5:30 AM 8:24 PM
Waning Crescent, 17% visible
METAR KALW 300153Z AUTO 27004KT 10SM CLR 37/07 A2975 RMK AO2 SLP061 T03720067

10-Day Weather Forecast

Almanac

Astronomy

Jul. 29, 2016 Rise Set
Actual Time
Civil Twilight
Nautical Twilight
Astronomical Twilight
Moon
Length of Visible Light
Length of Day
Tomorrow will be .
, % of the Moon is Illuminated

Today's Extremes

State Highs State Lows

Community

WunderPhotos

Upload Photos

1,928,481 photos uploaded!

WunderBlog® & News

Nearby

Air Quality

  Air Quality AQ Index Pollutant
Not available.

Snow Depth

Station Depth Elevation

Earthquake Activity

City Distance Mag. Time & Date
Minimum magnitude displayed is 2.5.

Coastal Water Temperatures

Place Temperature

Stations

Nearby Weather Stations

Station Location Temp. Windchill Dew Point Humidity Wind Precip. Elev Updated Type
                   

Watches & Warnings

Fire Weather Warning
Issued: 2:23 PM PDT Jul. 29, 2016 – National Weather Service

... Red flag warning in effect from 1 PM to 9 PM PDT Saturday for
gusty winds and low humidity...

The National Weather Service in Pendleton has issued a red flag
warning... which is in effect from 1 PM to 9 PM PDT Saturday. The
Fire Weather Watch is no longer in effect.

* Affected area... Washington and Oregon fire zone 641 covering
the lower Columbia Basin and Blue Mountain foothills.
Washington fire zone 675 covering the Hanford district and the
Yakima Valley.

* Timing... the strongest winds will occur between 3 PM and 8 PM.

* Wind... southwest to west wind 15 to 25 mph with gusts to 35 mph.

* Humidity... 12 to 18 percent.

* Impacts... any fires that develop will likely spread rapidly.
Outdoor burning is not recommended.

Precautionary/preparedness actions...

A red flag warning means that critical fire weather conditions
are either occurring now... .or will shortly. A combination of
strong winds... low relative humidity... and warm temperatures can
contribute to extreme fire behavior.